Cordell Hull Observed Data For Previous 48 Hours

Caption
Day and Hour Reservoir Elevation (behind dam)* Tailwater Elevation (below dam)* Average Hourly Discharge*
12/10/2018 1 AM CST 501.05 454.65 18,840
12/10/2018 2 AM CST 501.11 454.41 18,720
12/10/2018 3 AM CST 501.20 454.00 18,520
12/10/2018 4 AM CST 501.27 453.87 18,440
12/10/2018 5 AM CST 501.09 455.89 29,140
12/10/2018 6 AM CST 501.06 456.36 29,475
12/10/2018 7 AM CST 501.09 456.69 30,030
12/10/2018 8 AM CST 501.04 456.84 29,850
12/10/2018 9 AM CST 500.97 456.97 30,700
12/10/2018 10 AM CST 500.97 457.17 30,500
12/10/2018 11 AM CST 500.94 457.24 30,575
12/10/2018 12 PM CST 500.86 457.36 30,375
12/10/2018 1 PM CST 500.82 457.42 30,450
12/10/2018 2 PM CST 501.08 455.28 19,100
12/10/2018 3 PM CST 501.12 454.62 18,800
12/10/2018 4 PM CST 501.17 454.37 18,680
12/10/2018 5 PM CST 500.92 456.22 29,475
12/10/2018 6 PM CST 500.91 456.61 29,775
12/10/2018 7 PM CST 500.92 457.02 30,075
12/10/2018 8 PM CST 500.88 457.18 30,225
12/10/2018 9 PM CST 500.80 457.40 30,450
12/10/2018 10 PM CST 500.77 457.57 30,600
12/10/2018 11 PM CST 500.70 457.70 30,750
12/11/2018 12 AM CST 500.90 455.60 19,350
12/11/2018 1 AM CST 500.96 455.06 18,640
12/11/2018 2 AM CST 501.02 454.82 18,920
12/11/2018 3 AM CST 501.08 454.68 18,840
12/11/2018 4 AM CST 501.12 454.52 18,760
12/11/2018 5 AM CST 501.15 454.35 18,680
12/11/2018 6 AM CST 501.01 455.71 29,130
12/11/2018 7 AM CST 500.94 456.44 29,625
12/11/2018 8 AM CST 500.93 456.83 29,925
12/11/2018 9 AM CST 500.88 457.08 30,150
12/11/2018 10 AM CST 500.80 457.20 30,300
12/11/2018 11 AM CST 501.06 455.46 19,200
12/11/2018 12 PM CST 501.09 454.99 18,960
12/11/2018 1 PM CST 501.09 454.49 18,760
12/11/2018 2 PM CST 501.16 454.26 18,640
12/11/2018 3 PM CST 501.21 454.01 18,520
12/11/2018 4 PM CST 501.25 453.95 18,480
12/11/2018 5 PM CST 501.01 455.91 29,175
12/11/2018 6 PM CST 501.01 455.91 29,700
12/11/2018 7 PM CST 500.95 457.15 30,190
12/11/2018 8 PM CST 500.90 457.50 30,450
12/11/2018 9 PM CST 500.82 457.62 30,610
12/11/2018 10 PM CST 501.04 455.74 19,350
12/11/2018 11 PM CST 501.11 455.01 18,960
12/12/2018 12 AM CST 501.14 454.54 18,760

Elevations are in feet above sea level. Discharges are in cubic feet per second and are reported at the end of the hour.